createdAt,value
2023-03-17T00:01:51.299Z,15.17
2023-03-17T00:04:19.612Z,15.10
2023-03-17T00:06:47.690Z,12.60
2023-03-17T00:09:17.095Z,12.23
2023-03-17T00:11:45.240Z,11.77
2023-03-17T00:14:12.073Z,13.50
2023-03-17T00:16:42.268Z,10.73
2023-03-17T00:19:20.053Z,10.03
2023-03-17T00:21:47.042Z,9.50
2023-03-17T00:24:15.218Z,8.67
2023-03-17T00:26:43.316Z,10.17
2023-03-17T00:29:11.169Z,9.87
2023-03-17T00:31:39.445Z,10.90
2023-03-17T00:34:07.961Z,13.57
2023-03-17T00:36:35.723Z,12.03
2023-03-17T00:39:03.312Z,11.13
2023-03-17T00:41:30.040Z,11.57
2023-03-17T00:43:57.224Z,9.50
2023-03-17T00:46:29.134Z,10.47
2023-03-17T00:48:56.093Z,8.43
2023-03-17T00:51:23.388Z,9.17
2023-03-17T00:53:50.713Z,8.70
2023-03-17T00:56:20.802Z,9.73
2023-03-17T00:58:48.893Z,11.07
2023-03-17T01:01:16.133Z,10.83
2023-03-17T01:03:42.951Z,11.17
2023-03-17T01:06:13.762Z,11.23
2023-03-17T01:08:41.558Z,9.80
2023-03-17T01:11:26.205Z,10.17
2023-03-17T01:13:55.945Z,8.67
2023-03-17T01:16:23.355Z,8.93
2023-03-17T01:18:50.132Z,9.17
2023-03-17T01:21:16.841Z,8.17
2023-03-17T01:23:43.655Z,9.13
2023-03-17T01:26:10.427Z,12.63
2023-03-17T01:28:37.357Z,12.30
2023-03-17T01:31:04.996Z,9.60
2023-03-17T01:33:31.753Z,9.87
2023-03-17T01:35:58.526Z,13.20
2023-03-17T01:38:25.241Z,9.67
2023-03-17T01:40:53.512Z,11.10
2023-03-17T01:43:28.189Z,10.97
2023-03-17T01:46:16.566Z,9.93
2023-03-17T01:48:45.646Z,12.20
2023-03-17T01:51:17.852Z,10.27
2023-03-17T01:53:48.207Z,10.83
2023-03-17T01:56:16.911Z,8.80
2023-03-17T01:58:45.595Z,11.23
2023-03-17T02:01:14.128Z,11.27
2023-03-17T02:03:42.155Z,9.63
2023-03-17T02:06:09.803Z,8.40
2023-03-17T02:08:36.564Z,10.17
2023-03-17T02:11:05.179Z,10.63
2023-03-17T02:13:32.946Z,9.57
2023-03-17T02:15:59.762Z,11.50
2023-03-17T02:18:27.117Z,8.77
2023-03-17T02:20:56.781Z,8.40
2023-03-17T02:23:24.228Z,9.63
2023-03-17T02:25:53.080Z,8.57
2023-03-17T02:28:25.940Z,10.67
2023-03-17T02:30:52.781Z,12.00
2023-03-17T02:33:19.634Z,8.67
2023-03-17T02:35:46.984Z,9.43
2023-03-17T02:38:13.710Z,7.40
2023-03-17T02:40:40.692Z,10.17
2023-03-17T02:43:07.441Z,8.83
2023-03-17T02:45:34.160Z,9.40
2023-03-17T02:48:01.228Z,8.37
2023-03-17T02:50:29.073Z,9.97
2023-03-17T02:52:56.102Z,10.40
2023-03-17T02:55:23.183Z,9.23
2023-03-17T02:57:49.870Z,9.37
2023-03-17T03:00:16.970Z,10.03
2023-03-17T03:02:43.703Z,8.80
2023-03-17T03:05:10.865Z,9.17
2023-03-17T03:07:37.621Z,9.37
2023-03-17T03:10:05.562Z,10.27
2023-03-17T03:12:32.516Z,9.50
2023-03-17T03:14:59.511Z,10.77
2023-03-17T03:17:26.371Z,9.23
2023-03-17T03:19:53.055Z,10.83
2023-03-17T03:22:19.740Z,8.33
2023-03-17T03:24:46.916Z,11.57
2023-03-17T03:27:13.616Z,9.93
2023-03-17T03:29:40.327Z,8.77
2023-03-17T03:32:07.345Z,9.10
2023-03-17T03:34:34.465Z,8.83
2023-03-17T03:37:01.205Z,8.90
2023-03-17T03:39:27.905Z,12.53
2023-03-17T03:41:58.188Z,8.70
2023-03-17T03:44:25.515Z,8.30
2023-03-17T03:46:52.452Z,9.03
2023-03-17T03:49:19.258Z,10.50
2023-03-17T03:51:46.010Z,10.83
2023-03-17T03:54:12.712Z,10.07
2023-03-17T03:56:39.413Z,11.30
2023-03-17T03:59:06.217Z,11.57
2023-03-17T04:01:33.007Z,10.20
2023-03-17T04:03:59.711Z,8.40
2023-03-17T04:06:26.557Z,9.00
2023-03-17T04:08:53.419Z,7.03
2023-03-17T04:11:20.150Z,8.23
2023-03-17T04:13:47.133Z,7.63
2023-03-17T04:16:13.933Z,8.30
2023-03-17T04:18:41.365Z,7.57
2023-03-17T04:21:08.410Z,8.23
2023-03-17T04:23:35.404Z,6.60
2023-03-17T04:26:02.462Z,5.97
2023-03-17T04:28:29.306Z,5.83
2023-03-17T04:30:56.405Z,9.27
2023-03-17T04:33:23.095Z,7.37
2023-03-17T04:35:49.847Z,6.70
2023-03-17T04:38:16.824Z,6.00
2023-03-17T04:40:43.663Z,8.17
2023-03-17T04:43:10.406Z,7.73
2023-03-17T04:45:37.493Z,5.70
2023-03-17T04:48:04.817Z,6.27
2023-03-17T04:50:33.321Z,7.30
2023-03-17T04:53:00.287Z,7.80
2023-03-17T04:55:27.621Z,5.97
2023-03-17T04:57:54.301Z,6.27
2023-03-17T05:00:21.394Z,7.67
2023-03-17T05:02:48.087Z,5.53
2023-03-17T05:05:14.764Z,6.90
2023-03-17T05:07:41.886Z,9.17
2023-03-17T05:10:09.439Z,6.40
2023-03-17T05:12:36.251Z,5.77
2023-03-17T05:15:03.118Z,6.70
2023-03-17T05:17:29.892Z,6.53
2023-03-17T05:19:56.600Z,8.13
2023-03-17T05:22:23.303Z,8.47
2023-03-17T05:24:50.033Z,9.40
2023-03-17T05:27:16.778Z,7.90
2023-03-17T05:29:43.450Z,9.37
2023-03-17T05:32:10.303Z,8.03
2023-03-17T05:34:36.989Z,8.33
2023-03-17T05:37:03.651Z,12.83
2023-03-17T05:39:30.394Z,11.80
2023-03-17T05:41:57.296Z,10.47
2023-03-17T05:44:24.118Z,9.27
2023-03-17T05:46:51.317Z,9.93
2023-03-17T05:49:18.789Z,10.33
2023-03-17T05:51:45.504Z,10.97
2023-03-17T05:54:12.433Z,8.60
2023-03-17T05:56:39.237Z,7.20
2023-03-17T05:59:05.926Z,8.83
2023-03-17T06:01:35.175Z,8.97
2023-03-17T06:04:02.402Z,12.67
2023-03-17T06:06:29.137Z,8.70
2023-03-17T06:08:56.063Z,9.60
2023-03-17T06:11:22.782Z,10.47
2023-03-17T06:13:49.544Z,9.63
2023-03-17T06:16:16.665Z,10.43
2023-03-17T06:18:44.580Z,8.20
2023-03-17T06:21:11.919Z,7.90
2023-03-17T06:23:39.311Z,10.40
2023-03-17T06:26:06.457Z,8.40
2023-03-17T06:28:33.330Z,8.13
2023-03-17T06:31:00.497Z,8.83
2023-03-17T06:33:27.430Z,8.20
2023-03-17T06:35:54.252Z,9.40
2023-03-17T06:38:21.119Z,7.13
2023-03-17T06:40:48.001Z,9.37
2023-03-17T06:43:14.709Z,11.93
2023-03-17T06:45:42.110Z,12.00
2023-03-17T06:48:09.270Z,14.70
2023-03-17T06:50:36.355Z,14.77
2023-03-17T06:53:03.144Z,13.87
2023-03-17T06:55:30.423Z,17.13
2023-03-17T06:57:57.340Z,16.80
2023-03-17T07:00:24.203Z,14.47
2023-03-17T07:02:51.273Z,12.90
2023-03-17T07:05:18.575Z,8.93
2023-03-17T07:07:46.011Z,9.47
2023-03-17T07:10:17.274Z,7.67
2023-03-17T07:12:45.080Z,7.67
2023-03-17T07:15:12.557Z,6.33
2023-03-17T07:17:39.482Z,6.03
2023-03-17T07:20:06.796Z,7.87
2023-03-17T07:22:33.618Z,14.93
2023-03-17T07:25:00.387Z,11.67
2023-03-17T07:27:27.184Z,7.20
2023-03-17T07:29:54.048Z,9.53
2023-03-17T07:32:20.765Z,5.90
2023-03-17T07:34:47.587Z,7.50
2023-03-17T07:37:14.467Z,5.63
2023-03-17T07:39:41.183Z,3.60
2023-03-17T07:42:08.238Z,7.00
2023-03-17T07:44:35.018Z,3.40
2023-03-17T07:47:01.734Z,4.97
2023-03-17T07:49:40.906Z,5.37
2023-03-17T07:52:09.137Z,5.03
2023-03-17T07:54:36.982Z,4.60
2023-03-17T07:57:04.469Z,5.43
2023-03-17T07:59:31.651Z,3.85
2023-03-17T08:02:00.196Z,4.25
2023-03-17T08:04:27.813Z,3.58
2023-03-17T08:06:54.638Z,3.60
2023-03-17T08:09:22.346Z,5.07
2023-03-17T08:11:49.278Z,4.97
2023-03-17T08:14:16.228Z,4.15
2023-03-17T08:16:42.976Z,4.00
2023-03-17T08:19:10.865Z,2.80
2023-03-17T08:21:37.655Z,2.97
2023-03-17T08:24:05.248Z,2.75
2023-03-17T08:26:32.360Z,4.40
2023-03-17T08:28:59.087Z,4.28
2023-03-17T08:31:25.852Z,3.75
2023-03-17T08:33:54.492Z,3.40
2023-03-17T08:36:22.005Z,2.25
2023-03-17T08:38:50.082Z,3.25
2023-03-17T08:41:19.755Z,2.97
2023-03-17T08:43:47.289Z,3.80
2023-03-17T08:46:23.603Z,2.05
2023-03-17T08:48:51.856Z,2.80
2023-03-17T08:51:24.167Z,2.85
2023-03-17T08:53:52.495Z,3.47
2023-03-17T08:56:19.300Z,1.88
2023-03-17T08:58:46.917Z,2.65
2023-03-17T09:01:15.397Z,2.15
2023-03-17T09:03:42.433Z,1.90
2023-03-17T09:06:12.424Z,3.60
2023-03-17T09:08:41.233Z,3.00
2023-03-17T09:11:10.374Z,5.18
2023-03-17T09:13:39.062Z,3.20
2023-03-17T09:16:08.879Z,4.15
2023-03-17T09:18:36.197Z,1.92
2023-03-17T09:21:03.689Z,3.85
2023-03-17T09:23:30.986Z,3.35
2023-03-17T09:25:58.133Z,2.15
2023-03-17T09:28:25.255Z,3.13
2023-03-17T09:30:52.916Z,2.05
2023-03-17T09:33:19.989Z,3.05
2023-03-17T09:35:48.073Z,2.63
2023-03-17T09:38:14.821Z,2.13
2023-03-17T09:40:52.902Z,2.15
2023-03-17T09:43:37.518Z,2.13
2023-03-17T09:46:29.227Z,2.50
2023-03-17T09:49:03.807Z,3.85
2023-03-17T09:51:32.499Z,3.03
2023-03-17T09:54:03.064Z,2.58
2023-03-17T09:56:33.398Z,2.40
2023-03-17T09:59:20.234Z,3.58
2023-03-17T10:01:47.006Z,3.53
2023-03-17T10:04:14.388Z,5.28
2023-03-17T10:06:52.171Z,3.13
2023-03-17T10:09:50.177Z,3.65
2023-03-17T10:12:44.933Z,2.47
2023-03-17T10:15:25.274Z,4.32
2023-03-17T10:17:53.388Z,3.80
2023-03-17T10:20:30.238Z,3.35
2023-03-17T10:22:59.362Z,2.80
2023-03-17T10:25:30.840Z,5.00
2023-03-17T10:28:19.454Z,3.25
2023-03-17T10:30:46.451Z,3.28
2023-03-17T10:33:13.341Z,3.83
2023-03-17T10:35:40.613Z,2.45
2023-03-17T10:38:22.045Z,2.65
2023-03-17T10:41:00.665Z,3.45
2023-03-17T10:43:36.357Z,3.53
2023-03-17T10:46:06.403Z,5.18
2023-03-17T10:48:38.200Z,1.85
2023-03-17T10:51:09.901Z,4.50
2023-03-17T10:53:43.369Z,2.80
2023-03-17T10:56:20.397Z,3.00
2023-03-17T10:58:51.975Z,3.40
2023-03-17T11:01:34.056Z,3.22
2023-03-17T11:04:02.687Z,3.50
2023-03-17T11:06:43.937Z,2.72
2023-03-17T11:09:19.372Z,5.20
2023-03-17T11:11:48.921Z,2.72
2023-03-17T11:14:21.252Z,2.42
2023-03-17T11:16:53.522Z,3.90
2023-03-17T11:19:29.623Z,5.03
2023-03-17T11:22:11.572Z,2.40
2023-03-17T11:24:51.449Z,3.10
2023-03-17T11:27:35.481Z,2.05
2023-03-17T11:30:13.557Z,2.95
2023-03-17T11:33:07.273Z,3.17
2023-03-17T11:35:46.235Z,2.28
2023-03-17T11:38:45.189Z,3.70
2023-03-17T11:41:17.876Z,1.88
2023-03-17T11:44:10.589Z,5.63
2023-03-17T11:46:56.423Z,4.05
2023-03-17T11:49:37.796Z,2.60
2023-03-17T11:52:35.917Z,1.70
2023-03-17T11:55:20.089Z,2.40
2023-03-17T11:57:59.925Z,1.95
2023-03-17T12:00:34.838Z,1.42
2023-03-17T12:03:16.738Z,2.90
2023-03-17T12:05:48.490Z,2.17
2023-03-17T12:08:33.703Z,1.98
2023-03-17T12:11:05.587Z,2.13
2023-03-17T12:13:40.329Z,2.03
2023-03-17T12:16:14.432Z,2.85
2023-03-17T12:18:46.315Z,2.90
2023-03-17T12:21:20.632Z,1.85
2023-03-17T12:23:49.529Z,2.38
2023-03-17T12:26:20.260Z,2.00
2023-03-17T12:28:52.432Z,1.95
2023-03-17T12:31:28.896Z,1.95
2023-03-17T12:34:20.920Z,2.95
2023-03-17T12:36:49.191Z,3.03
2023-03-17T12:39:27.903Z,0.90
2023-03-17T12:41:59.653Z,1.95
2023-03-17T12:44:41.349Z,4.65
2023-03-17T12:47:45.198Z,2.60
2023-03-17T12:50:40.918Z,2.10
2023-03-17T12:53:28.481Z,2.10
2023-03-17T12:55:59.192Z,2.05
2023-03-17T12:58:44.224Z,1.73
2023-03-17T13:01:19.852Z,3.50
2023-03-17T13:04:12.775Z,3.85
2023-03-17T13:06:45.049Z,1.75
2023-03-17T13:09:39.499Z,3.28
2023-03-17T13:12:07.117Z,2.10
2023-03-17T13:14:41.855Z,1.55
2023-03-17T13:17:17.912Z,4.68
2023-03-17T13:20:07.988Z,1.63
2023-03-17T13:23:00.705Z,2.05
2023-03-17T13:25:33.834Z,2.78
2023-03-17T13:28:25.801Z,2.08
2023-03-17T13:31:18.131Z,3.70
2023-03-17T13:33:54.442Z,2.85
2023-03-17T13:36:59.623Z,2.25
2023-03-17T13:39:43.794Z,1.92
2023-03-17T13:42:17.883Z,1.27
2023-03-17T13:45:23.263Z,2.58
2023-03-17T13:47:52.412Z,1.52
2023-03-17T13:50:32.070Z,1.30
2023-03-17T13:53:04.860Z,2.28
2023-03-17T13:55:41.358Z,2.25
2023-03-17T13:58:10.844Z,1.20
2023-03-17T14:00:47.631Z,2.92
2023-03-17T14:03:20.323Z,0.98
2023-03-17T14:05:49.694Z,4.88
2023-03-17T14:08:20.216Z,2.30
2023-03-17T14:10:59.828Z,3.00
2023-03-17T14:13:48.546Z,2.58
2023-03-17T14:16:32.182Z,2.25
2023-03-17T14:19:21.831Z,3.13
2023-03-17T14:21:48.722Z,1.05
2023-03-17T14:24:21.216Z,1.55
2023-03-17T14:26:50.216Z,1.58
2023-03-17T14:29:20.487Z,1.95
2023-03-17T14:31:52.756Z,1.90
2023-03-17T14:34:22.132Z,2.55
2023-03-17T14:36:51.047Z,1.92
2023-03-17T14:39:23.363Z,1.00
2023-03-17T14:42:05.218Z,0.88
2023-03-17T14:44:39.876Z,1.30
2023-03-17T14:47:16.576Z,1.85
2023-03-17T14:49:43.337Z,2.60
2023-03-17T14:52:23.478Z,3.42
2023-03-17T14:54:53.094Z,3.25
2023-03-17T14:57:32.703Z,3.53
2023-03-17T15:00:11.864Z,2.03
2023-03-17T15:02:41.384Z,2.85
2023-03-17T15:05:36.331Z,1.40
2023-03-17T15:08:06.916Z,3.13
2023-03-17T15:10:42.438Z,2.05
2023-03-17T15:13:12.251Z,1.73
2023-03-17T15:15:41.638Z,1.30
2023-03-17T15:18:13.837Z,3.13
2023-03-17T15:20:43.192Z,2.90
2023-03-17T15:23:25.400Z,3.72
2023-03-17T15:25:56.389Z,2.20
2023-03-17T15:28:31.151Z,2.28
2023-03-17T15:31:13.203Z,2.45
2023-03-17T15:33:41.643Z,2.63
2023-03-17T15:36:29.176Z,4.95
2023-03-17T15:38:57.869Z,1.05
2023-03-17T15:41:24.594Z,1.63
2023-03-17T15:43:51.319Z,1.55
2023-03-17T15:46:27.254Z,2.20
2023-03-17T15:48:54.078Z,1.00
2023-03-17T15:51:20.896Z,3.60
2023-03-17T15:53:47.610Z,3.08
2023-03-17T15:56:19.064Z,2.08
2023-03-17T15:58:48.138Z,2.25
2023-03-17T16:01:16.454Z,1.55
2023-03-17T16:03:45.396Z,2.25
2023-03-17T16:06:19.621Z,2.50
2023-03-17T16:08:46.837Z,3.55
2023-03-17T16:11:15.796Z,2.42
2023-03-17T16:13:42.645Z,1.05
2023-03-17T16:16:17.727Z,5.47
2023-03-17T16:18:46.989Z,1.98
2023-03-17T16:21:13.849Z,2.88
2023-03-17T16:23:40.759Z,3.47
2023-03-17T16:26:15.456Z,2.08
2023-03-17T16:28:45.087Z,2.38
2023-03-17T16:31:31.668Z,5.93
2023-03-17T16:33:58.578Z,4.38
2023-03-17T16:36:26.094Z,1.73
2023-03-17T16:38:53.207Z,4.30
2023-03-17T16:41:23.097Z,7.38
2023-03-17T16:43:55.937Z,4.20
2023-03-17T16:46:23.134Z,2.92
2023-03-17T16:48:50.723Z,2.78
2023-03-17T16:51:17.986Z,3.95
2023-03-17T16:53:45.759Z,2.53
2023-03-17T16:56:21.899Z,2.25
2023-03-17T16:58:49.391Z,2.47
2023-03-17T17:01:24.923Z,5.60
2023-03-17T17:03:52.028Z,5.40
2023-03-17T17:06:20.586Z,5.20
2023-03-17T17:08:48.763Z,6.57
2023-03-17T17:11:16.942Z,4.35
2023-03-17T17:13:46.123Z,4.47
2023-03-17T17:16:22.104Z,3.88
2023-03-17T17:18:48.915Z,3.30
2023-03-17T17:21:15.853Z,4.40
2023-03-17T17:23:42.751Z,4.78
2023-03-17T17:26:09.749Z,5.35
2023-03-17T17:28:39.346Z,4.35
2023-03-17T17:31:08.381Z,4.22
2023-03-17T17:33:36.913Z,5.07
2023-03-17T17:36:12.459Z,3.25
2023-03-17T17:38:39.394Z,3.58
2023-03-17T17:41:07.033Z,4.82
2023-03-17T17:43:33.786Z,5.70
2023-03-17T17:46:01.177Z,5.93
2023-03-17T17:48:28.640Z,5.60
2023-03-17T17:50:56.922Z,5.17
2023-03-17T17:53:24.140Z,4.17
2023-03-17T17:55:51.861Z,6.20
2023-03-17T17:58:24.631Z,8.53
2023-03-17T18:00:55.328Z,7.53
2023-03-17T18:03:25.137Z,8.40
2023-03-17T18:05:53.319Z,6.20
2023-03-17T18:08:20.821Z,5.47
2023-03-17T18:10:48.514Z,6.30
2023-03-17T18:13:16.095Z,4.77
2023-03-17T18:15:42.989Z,5.03
2023-03-17T18:18:09.915Z,4.63
2023-03-17T18:20:36.902Z,5.87
2023-03-17T18:23:03.835Z,5.93
2023-03-17T18:25:32.675Z,5.90
2023-03-17T18:28:01.384Z,6.53
2023-03-17T18:30:30.610Z,4.93
2023-03-17T18:33:02.602Z,5.53
2023-03-17T18:35:29.964Z,6.57
2023-03-17T18:37:57.965Z,6.37
2023-03-17T18:40:25.738Z,5.90
2023-03-17T18:42:53.074Z,4.43
2023-03-17T18:45:19.887Z,7.13
2023-03-17T18:47:46.695Z,5.73
2023-03-17T18:50:15.534Z,5.63
2023-03-17T18:52:43.801Z,5.63
2023-03-17T18:55:12.080Z,6.17
2023-03-17T18:57:39.641Z,7.90
2023-03-17T19:00:08.606Z,5.53
2023-03-17T19:02:35.875Z,5.07
2023-03-17T19:05:03.421Z,4.47
2023-03-17T19:07:30.104Z,5.73
2023-03-17T19:09:57.218Z,7.17
2023-03-17T19:12:23.934Z,6.47
2023-03-17T19:14:50.679Z,7.13
2023-03-17T19:17:18.166Z,8.57
2023-03-17T19:19:45.672Z,8.60
2023-03-17T19:22:12.350Z,10.00
2023-03-17T19:24:39.016Z,10.57
2023-03-17T19:27:05.979Z,6.67
2023-03-17T19:29:33.403Z,7.37
2023-03-17T19:32:00.537Z,6.37
2023-03-17T19:34:27.366Z,5.50
2023-03-17T19:36:54.150Z,5.73
2023-03-17T19:39:21.602Z,5.97
2023-03-17T19:41:50.133Z,7.20
2023-03-17T19:44:16.944Z,5.90
2023-03-17T19:46:43.655Z,6.43
2023-03-17T19:49:11.569Z,8.63
2023-03-17T19:51:38.401Z,6.77
2023-03-17T19:54:05.392Z,7.07
2023-03-17T19:56:32.656Z,6.50
2023-03-17T19:58:59.867Z,7.90
2023-03-17T20:01:28.043Z,8.13
2023-03-17T20:03:55.134Z,7.37
2023-03-17T20:06:22.188Z,7.77
2023-03-17T20:08:48.876Z,6.57
2023-03-17T20:11:15.556Z,7.87
2023-03-17T20:13:42.491Z,7.47
2023-03-17T20:16:09.678Z,7.67
2023-03-17T20:18:36.474Z,8.10
2023-03-17T20:21:05.907Z,7.50
2023-03-17T20:23:32.893Z,8.50
2023-03-17T20:25:59.788Z,11.40
2023-03-17T20:28:28.273Z,10.30
2023-03-17T20:31:01.212Z,10.67
2023-03-17T20:33:28.013Z,11.53
2023-03-17T20:35:54.918Z,13.70
2023-03-17T20:38:21.634Z,13.77
2023-03-17T20:40:48.381Z,12.13
2023-03-17T20:43:15.719Z,11.63
2023-03-17T20:45:42.550Z,12.83
2023-03-17T20:48:10.749Z,13.07
2023-03-17T20:50:38.746Z,8.80
2023-03-17T20:53:05.632Z,7.93
2023-03-17T20:55:32.387Z,9.33
2023-03-17T20:57:59.797Z,8.43
2023-03-17T21:00:30.237Z,7.93
2023-03-17T21:02:57.352Z,12.87
2023-03-17T21:05:26.609Z,13.13
2023-03-17T21:07:54.109Z,14.63
2023-03-17T21:10:21.121Z,12.43
2023-03-17T21:12:48.073Z,13.27
2023-03-17T21:15:15.183Z,11.30
2023-03-17T21:17:43.151Z,14.40
2023-03-17T21:20:12.668Z,15.03
2023-03-17T21:22:40.187Z,13.53
2023-03-17T21:25:08.744Z,16.93
2023-03-17T21:27:39.722Z,16.33
2023-03-17T21:30:11.128Z,13.53
2023-03-17T21:32:39.070Z,10.83
2023-03-17T21:35:07.873Z,12.27
2023-03-17T21:37:35.523Z,11.57
2023-03-17T21:40:03.060Z,11.40
2023-03-17T21:42:29.916Z,10.90
2023-03-17T21:44:56.772Z,10.20
2023-03-17T21:47:23.452Z,9.93
2023-03-17T21:49:50.161Z,9.70
2023-03-17T21:52:16.929Z,8.70
2023-03-17T21:54:43.654Z,10.67
2023-03-17T21:57:12.155Z,10.40
2023-03-17T21:59:40.026Z,7.57
2023-03-17T22:02:06.892Z,7.70
2023-03-17T22:04:33.641Z,9.27
2023-03-17T22:07:00.424Z,6.30
2023-03-17T22:09:27.787Z,10.27
2023-03-17T22:11:55.066Z,8.83
2023-03-17T22:14:21.998Z,7.57
2023-03-17T22:16:49.311Z,5.47
2023-03-17T22:19:18.224Z,5.93
2023-03-17T22:21:46.163Z,7.00
2023-03-17T22:24:13.348Z,10.20
2023-03-17T22:26:40.054Z,8.30
2023-03-17T22:29:06.846Z,7.67
2023-03-17T22:31:34.803Z,8.43
2023-03-17T22:34:02.197Z,11.37
2023-03-17T22:36:30.379Z,9.10
2023-03-17T22:38:58.352Z,6.63
2023-03-17T22:41:28.223Z,8.77
2023-03-17T22:43:55.352Z,4.53
2023-03-17T22:46:23.819Z,3.43
2023-03-17T22:48:51.004Z,4.20
2023-03-17T22:51:21.849Z,4.17
2023-03-17T22:53:49.759Z,5.00
2023-03-17T22:56:17.311Z,4.70
2023-03-17T22:58:44.916Z,3.73
2023-03-17T23:01:13.475Z,5.80
2023-03-17T23:03:40.854Z,5.17
2023-03-17T23:06:09.095Z,6.03
2023-03-17T23:08:38.445Z,7.13
2023-03-17T23:11:18.306Z,5.27
2023-03-17T23:13:47.374Z,5.67
2023-03-17T23:16:14.991Z,5.47
2023-03-17T23:18:44.645Z,7.67
2023-03-17T23:21:27.634Z,6.27
2023-03-17T23:23:54.333Z,7.23
2023-03-17T23:26:21.431Z,5.97
2023-03-17T23:28:48.175Z,7.97
2023-03-17T23:31:16.651Z,6.23
2023-03-17T23:33:43.830Z,6.50
2023-03-17T23:36:13.016Z,6.13
2023-03-17T23:38:40.790Z,5.63
2023-03-17T23:41:07.691Z,4.70
2023-03-17T23:43:34.545Z,6.67
2023-03-17T23:46:01.943Z,5.63
2023-03-17T23:48:28.904Z,5.60
2023-03-17T23:50:55.719Z,5.83
2023-03-17T23:53:24.075Z,4.93
2023-03-17T23:55:52.950Z,7.53
2023-03-17T23:58:19.782Z,5.07
